sensor_id;sensor_type;location;lat;lon;timestamp;temperature;humidity
19928;DHT22;10126;50.876;4.470;2023-08-07T00:01:33;12.70;99.90
19928;DHT22;10126;50.876;4.470;2023-08-07T00:03:33;12.70;99.90
19928;DHT22;10126;50.876;4.470;2023-08-07T00:05:36;12.80;99.90
19928;DHT22;10126;50.876;4.470;2023-08-07T00:07:36;12.80;99.90
19928;DHT22;10126;50.876;4.470;2023-08-07T00:09:37;12.80;99.90
19928;DHT22;10126;50.876;4.470;2023-08-07T00:11:37;12.90;99.90
19928;DHT22;10126;50.876;4.470;2023-08-07T00:13:41;13.00;99.90
19928;DHT22;10126;50.876;4.470;2023-08-07T00:15:42;13.10;99.90
19928;DHT22;10126;50.876;4.470;2023-08-07T00:17:42;13.00;99.90
19928;DHT22;10126;50.876;4.470;2023-08-07T00:19:43;13.00;99.90
19928;DHT22;10126;50.876;4.470;2023-08-07T00:21:43;13.00;99.90
19928;DHT22;10126;50.876;4.470;2023-08-07T00:23:44;13.00;99.90
19928;DHT22;10126;50.876;4.470;2023-08-07T00:25:45;12.90;99.90
19928;DHT22;10126;50.876;4.470;2023-08-07T00:27:45;12.90;99.90
19928;DHT22;10126;50.876;4.470;2023-08-07T00:29:46;12.90;99.90
19928;DHT22;10126;50.876;4.470;2023-08-07T00:31:46;13.00;99.90
19928;DHT22;10126;50.876;4.470;2023-08-07T00:33:47;13.00;99.90
19928;DHT22;10126;50.876;4.470;2023-08-07T00:35:52;12.90;99.90
19928;DHT22;10126;50.876;4.470;2023-08-07T00:37:52;13.00;99.90
19928;DHT22;10126;50.876;4.470;2023-08-07T00:39:53;12.90;99.90
19928;DHT22;10126;50.876;4.470;2023-08-07T00:41:54;12.90;99.90
19928;DHT22;10126;50.876;4.470;2023-08-07T00:43:54;12.90;99.90
19928;DHT22;10126;50.876;4.470;2023-08-07T00:45:55;12.90;99.90
19928;DHT22;10126;50.876;4.470;2023-08-07T00:47:56;12.80;99.90
19928;DHT22;10126;50.876;4.470;2023-08-07T00:49:57;12.70;99.90
19928;DHT22;10126;50.876;4.470;2023-08-07T00:51:59;12.70;99.90
19928;DHT22;10126;50.876;4.470;2023-08-07T00:54:00;12.60;99.90
19928;DHT22;10126;50.876;4.470;2023-08-07T00:56:03;12.60;99.90
19928;DHT22;10126;50.876;4.470;2023-08-07T00:58:04;12.60;99.90
19928;DHT22;10126;50.876;4.470;2023-08-07T01:00:05;12.60;99.90
19928;DHT22;10126;50.876;4.470;2023-08-07T01:02:09;12.50;99.90
19928;DHT22;10126;50.876;4.470;2023-08-07T01:04:10;12.60;99.90
19928;DHT22;10126;50.876;4.470;2023-08-07T01:06:10;12.50;99.90
19928;DHT22;10126;50.876;4.470;2023-08-07T01:08:11;12.50;99.90
19928;DHT22;10126;50.876;4.470;2023-08-07T01:10:12;12.50;99.90
19928;DHT22;10126;50.876;4.470;2023-08-07T01:12:15;12.60;99.90
19928;DHT22;10126;50.876;4.470;2023-08-07T01:18:32;12.70;99.90
19928;DHT22;10126;50.876;4.470;2023-08-07T01:20:32;12.60;99.90
19928;DHT22;10126;50.876;4.470;2023-08-07T01:22:33;12.50;99.90
19928;DHT22;10126;50.876;4.470;2023-08-07T01:24:35;12.50;99.90
19928;DHT22;10126;50.876;4.470;2023-08-07T01:26:37;12.50;99.90
19928;DHT22;10126;50.876;4.470;2023-08-07T01:28:44;12.60;99.90
19928;DHT22;10126;50.876;4.470;2023-08-07T01:30:49;12.60;99.90
19928;DHT22;10126;50.876;4.470;2023-08-07T01:33:13;12.60;99.90
19928;DHT22;10126;50.876;4.470;2023-08-07T01:35:20;12.50;99.90
19928;DHT22;10126;50.876;4.470;2023-08-07T01:37:23;12.50;99.90
19928;DHT22;10126;50.876;4.470;2023-08-07T01:39:24;12.60;99.90
19928;DHT22;10126;50.876;4.470;2023-08-07T01:41:25;12.50;99.90
19928;DHT22;10126;50.876;4.470;2023-08-07T01:43:27;12.40;99.90
19928;DHT22;10126;50.876;4.470;2023-08-07T01:45:28;12.30;99.90
19928;DHT22;10126;50.876;4.470;2023-08-07T01:47:29;12.40;99.90
19928;DHT22;10126;50.876;4.470;2023-08-07T01:49:30;12.40;99.90
19928;DHT22;10126;50.876;4.470;2023-08-07T01:51:30;12.40;99.90
19928;DHT22;10126;50.876;4.470;2023-08-07T01:53:31;12.40;99.90
19928;DHT22;10126;50.876;4.470;2023-08-07T01:55:32;12.40;99.90
19928;DHT22;10126;50.876;4.470;2023-08-07T01:57:32;12.40;99.90
19928;DHT22;10126;50.876;4.470;2023-08-07T01:59:33;12.40;99.90
19928;DHT22;10126;50.876;4.470;2023-08-07T02:01:34;12.40;99.90
19928;DHT22;10126;50.876;4.470;2023-08-07T02:03:34;12.40;99.90
19928;DHT22;10126;50.876;4.470;2023-08-07T02:05:35;12.40;99.90
19928;DHT22;10126;50.876;4.470;2023-08-07T02:07:35;12.40;99.90
19928;DHT22;10126;50.876;4.470;2023-08-07T02:09:36;12.30;99.90
19928;DHT22;10126;50.876;4.470;2023-08-07T02:11:37;12.30;99.90
19928;DHT22;10126;50.876;4.470;2023-08-07T02:13:37;12.30;99.90
19928;DHT22;10126;50.876;4.470;2023-08-07T02:15:38;12.30;99.90
19928;DHT22;10126;50.876;4.470;2023-08-07T02:17:38;12.30;99.90
19928;DHT22;10126;50.876;4.470;2023-08-07T02:19:41;12.30;99.90
19928;DHT22;10126;50.876;4.470;2023-08-07T02:21:45;12.30;99.90
19928;DHT22;10126;50.876;4.470;2023-08-07T02:23:45;12.30;99.90
19928;DHT22;10126;50.876;4.470;2023-08-07T02:25:46;12.30;99.90
19928;DHT22;10126;50.876;4.470;2023-08-07T02:27:47;12.30;99.90
19928;DHT22;10126;50.876;4.470;2023-08-07T02:29:47;12.30;99.90
19928;DHT22;10126;50.876;4.470;2023-08-07T02:31:48;12.30;99.90
19928;DHT22;10126;50.876;4.470;2023-08-07T02:33:49;12.30;99.90
19928;DHT22;10126;50.876;4.470;2023-08-07T02:35:49;12.20;99.90
19928;DHT22;10126;50.876;4.470;2023-08-07T02:37:51;12.20;99.90
19928;DHT22;10126;50.876;4.470;2023-08-07T02:39:52;12.20;99.90
19928;DHT22;10126;50.876;4.470;2023-08-07T02:41:54;12.00;99.90
19928;DHT22;10126;50.876;4.470;2023-08-07T02:43:54;12.10;99.90
19928;DHT22;10126;50.876;4.470;2023-08-07T02:45:55;12.20;99.90
19928;DHT22;10126;50.876;4.470;2023-08-07T02:47:56;12.30;99.90
19928;DHT22;10126;50.876;4.470;2023-08-07T02:49:57;12.30;99.90
19928;DHT22;10126;50.876;4.470;2023-08-07T02:51:57;12.30;99.90
19928;DHT22;10126;50.876;4.470;2023-08-07T02:53:58;12.20;99.90
19928;DHT22;10126;50.876;4.470;2023-08-07T02:55:59;12.30;99.90
19928;DHT22;10126;50.876;4.470;2023-08-07T02:57:59;12.20;99.90
19928;DHT22;10126;50.876;4.470;2023-08-07T03:00:00;12.20;99.90
19928;DHT22;10126;50.876;4.470;2023-08-07T03:02:00;12.20;99.90
19928;DHT22;10126;50.876;4.470;2023-08-07T03:04:01;12.10;99.90
19928;DHT22;10126;50.876;4.470;2023-08-07T03:06:02;12.10;99.90
19928;DHT22;10126;50.876;4.470;2023-08-07T03:08:02;12.00;99.90
19928;DHT22;10126;50.876;4.470;2023-08-07T03:10:03;11.90;99.90
19928;DHT22;10126;50.876;4.470;2023-08-07T03:12:05;12.00;99.90
19928;DHT22;10126;50.876;4.470;2023-08-07T03:14:06;12.00;99.90
19928;DHT22;10126;50.876;4.470;2023-08-07T03:16:09;12.10;99.90
19928;DHT22;10126;50.876;4.470;2023-08-07T03:18:10;12.10;99.90
19928;DHT22;10126;50.876;4.470;2023-08-07T03:20:11;12.00;99.90
19928;DHT22;10126;50.876;4.470;2023-08-07T03:22:11;12.00;99.90
19928;DHT22;10126;50.876;4.470;2023-08-07T03:24:12;12.10;99.90
19928;DHT22;10126;50.876;4.470;2023-08-07T03:26:13;12.10;99.90
19928;DHT22;10126;50.876;4.470;2023-08-07T03:28:13;12.20;99.90
19928;DHT22;10126;50.876;4.470;2023-08-07T03:30:14;12.10;99.90
19928;DHT22;10126;50.876;4.470;2023-08-07T03:32:17;12.10;99.90
19928;DHT22;10126;50.876;4.470;2023-08-07T03:34:18;12.10;99.90
19928;DHT22;10126;50.876;4.470;2023-08-07T03:36:18;12.10;99.90
19928;DHT22;10126;50.876;4.470;2023-08-07T03:38:22;12.10;99.90
19928;DHT22;10126;50.876;4.470;2023-08-07T03:40:22;12.00;99.90
19928;DHT22;10126;50.876;4.470;2023-08-07T03:42:23;12.10;99.90
19928;DHT22;10126;50.876;4.470;2023-08-07T03:44:23;12.10;99.90
19928;DHT22;10126;50.876;4.470;2023-08-07T03:46:24;12.00;99.90
19928;DHT22;10126;50.876;4.470;2023-08-07T03:48:33;12.00;99.90
19928;DHT22;10126;50.876;4.470;2023-08-07T03:50:34;12.20;99.90
19928;DHT22;10126;50.876;4.470;2023-08-07T03:52:37;12.20;99.90
19928;DHT22;10126;50.876;4.470;2023-08-07T03:54:38;12.30;99.90
19928;DHT22;10126;50.876;4.470;2023-08-07T03:56:41;12.40;99.90
19928;DHT22;10126;50.876;4.470;2023-08-07T03:58:45;12.50;99.90
19928;DHT22;10126;50.876;4.470;2023-08-07T04:00:45;12.60;99.90
19928;DHT22;10126;50.876;4.470;2023-08-07T04:02:46;12.60;99.90
19928;DHT22;10126;50.876;4.470;2023-08-07T04:04:47;12.70;99.90
19928;DHT22;10126;50.876;4.470;2023-08-07T04:06:47;12.70;99.90
19928;DHT22;10126;50.876;4.470;2023-08-07T04:08:50;12.60;99.90
19928;DHT22;10126;50.876;4.470;2023-08-07T04:12:59;12.50;99.90
19928;DHT22;10126;50.876;4.470;2023-08-07T04:15:00;12.50;99.90
19928;DHT22;10126;50.876;4.470;2023-08-07T04:17:00;12.50;99.90
19928;DHT22;10126;50.876;4.470;2023-08-07T04:19:01;12.50;99.90
19928;DHT22;10126;50.876;4.470;2023-08-07T04:21:02;12.40;99.90
19928;DHT22;10126;50.876;4.470;2023-08-07T04:23:05;12.30;99.90
19928;DHT22;10126;50.876;4.470;2023-08-07T04:25:06;12.30;99.90
19928;DHT22;10126;50.876;4.470;2023-08-07T04:27:07;12.30;99.90
19928;DHT22;10126;50.876;4.470;2023-08-07T04:29:09;12.30;99.90
19928;DHT22;10126;50.876;4.470;2023-08-07T04:31:09;12.30;99.90
19928;DHT22;10126;50.876;4.470;2023-08-07T04:33:13;12.30;99.90
19928;DHT22;10126;50.876;4.470;2023-08-07T04:35:14;12.40;99.90
19928;DHT22;10126;50.876;4.470;2023-08-07T04:37:15;12.50;99.90
19928;DHT22;10126;50.876;4.470;2023-08-07T04:39:15;12.50;99.90
19928;DHT22;10126;50.876;4.470;2023-08-07T04:41:17;12.50;99.90
19928;DHT22;10126;50.876;4.470;2023-08-07T04:43:18;12.50;99.90
19928;DHT22;10126;50.876;4.470;2023-08-07T04:45:22;12.60;99.90
19928;DHT22;10126;50.876;4.470;2023-08-07T04:47:23;12.50;99.90
19928;DHT22;10126;50.876;4.470;2023-08-07T04:49:23;12.60;99.90
19928;DHT22;10126;50.876;4.470;2023-08-07T04:51:24;12.70;99.90
19928;DHT22;10126;50.876;4.470;2023-08-07T04:53:24;12.70;99.90
19928;DHT22;10126;50.876;4.470;2023-08-07T04:55:26;12.70;99.90
19928;DHT22;10126;50.876;4.470;2023-08-07T04:57:26;12.70;99.90
19928;DHT22;10126;50.876;4.470;2023-08-07T04:59:27;12.70;99.90
19928;DHT22;10126;50.876;4.470;2023-08-07T05:01:30;12.70;99.90
19928;DHT22;10126;50.876;4.470;2023-08-07T05:03:31;12.70;99.90
19928;DHT22;10126;50.876;4.470;2023-08-07T05:05:31;12.80;99.90
19928;DHT22;10126;50.876;4.470;2023-08-07T05:07:33;12.70;99.90
19928;DHT22;10126;50.876;4.470;2023-08-07T05:09:35;12.80;99.90
19928;DHT22;10126;50.876;4.470;2023-08-07T05:11:35;12.90;99.90
19928;DHT22;10126;50.876;4.470;2023-08-07T05:13:36;12.90;99.90
19928;DHT22;10126;50.876;4.470;2023-08-07T05:15:36;13.00;99.90
19928;DHT22;10126;50.876;4.470;2023-08-07T05:17:37;13.20;99.90
19928;DHT22;10126;50.876;4.470;2023-08-07T05:19:38;13.40;99.90
19928;DHT22;10126;50.876;4.470;2023-08-07T05:21:38;13.60;99.90
19928;DHT22;10126;50.876;4.470;2023-08-07T05:23:39;14.00;99.90
19928;DHT22;10126;50.876;4.470;2023-08-07T05:25:39;14.70;99.90
19928;DHT22;10126;50.876;4.470;2023-08-07T05:27:40;15.90;99.90
19928;DHT22;10126;50.876;4.470;2023-08-07T05:29:41;16.80;99.90
19928;DHT22;10126;50.876;4.470;2023-08-07T05:31:45;17.60;99.90
19928;DHT22;10126;50.876;4.470;2023-08-07T05:33:46;18.30;99.90
19928;DHT22;10126;50.876;4.470;2023-08-07T05:35:46;18.90;99.90
19928;DHT22;10126;50.876;4.470;2023-08-07T05:37:47;19.40;99.90
19928;DHT22;10126;50.876;4.470;2023-08-07T05:39:48;19.40;99.90
19928;DHT22;10126;50.876;4.470;2023-08-07T05:41:48;19.90;99.90
19928;DHT22;10126;50.876;4.470;2023-08-07T05:43:52;20.10;99.90
19928;DHT22;10126;50.876;4.470;2023-08-07T05:45:52;20.50;99.90
19928;DHT22;10126;50.876;4.470;2023-08-07T05:47:53;20.70;99.90
19928;DHT22;10126;50.876;4.470;2023-08-07T05:49:54;20.60;99.90
19928;DHT22;10126;50.876;4.470;2023-08-07T05:51:54;21.10;99.90
19928;DHT22;10126;50.876;4.470;2023-08-07T05:53:55;21.20;99.90
19928;DHT22;10126;50.876;4.470;2023-08-07T05:55:56;21.00;99.90
19928;DHT22;10126;50.876;4.470;2023-08-07T05:57:56;21.20;99.90
19928;DHT22;10126;50.876;4.470;2023-08-07T05:59:57;21.00;99.90
19928;DHT22;10126;50.876;4.470;2023-08-07T06:01:57;20.90;99.90
19928;DHT22;10126;50.876;4.470;2023-08-07T06:03:58;21.30;99.90
19928;DHT22;10126;50.876;4.470;2023-08-07T06:05:59;21.60;99.90
19928;DHT22;10126;50.876;4.470;2023-08-07T06:08:00;22.00;99.90
19928;DHT22;10126;50.876;4.470;2023-08-07T06:10:01;21.80;99.90
19928;DHT22;10126;50.876;4.470;2023-08-07T06:12:01;21.60;99.90
19928;DHT22;10126;50.876;4.470;2023-08-07T06:14:02;21.70;99.90
19928;DHT22;10126;50.876;4.470;2023-08-07T06:16:03;22.10;99.90
19928;DHT22;10126;50.876;4.470;2023-08-07T06:18:04;22.20;99.90
19928;DHT22;10126;50.876;4.470;2023-08-07T06:20:07;21.60;99.90
19928;DHT22;10126;50.876;4.470;2023-08-07T06:22:09;22.00;99.90
19928;DHT22;10126;50.876;4.470;2023-08-07T06:24:10;22.40;99.90
19928;DHT22;10126;50.876;4.470;2023-08-07T06:26:13;22.30;99.90
19928;DHT22;10126;50.876;4.470;2023-08-07T06:28:14;22.80;99.90
19928;DHT22;10126;50.876;4.470;2023-08-07T06:30:14;22.80;99.90
19928;DHT22;10126;50.876;4.470;2023-08-07T06:32:15;22.80;99.90
19928;DHT22;10126;50.876;4.470;2023-08-07T06:34:18;23.00;99.90
19928;DHT22;10126;50.876;4.470;2023-08-07T06:36:18;23.10;99.90
19928;DHT22;10126;50.876;4.470;2023-08-07T06:38:19;23.20;99.90
19928;DHT22;10126;50.876;4.470;2023-08-07T06:40:20;23.00;99.90
19928;DHT22;10126;50.876;4.470;2023-08-07T06:42:20;23.10;99.90
19928;DHT22;10126;50.876;4.470;2023-08-07T06:44:21;23.10;99.90
19928;DHT22;10126;50.876;4.470;2023-08-07T06:46:22;24.20;99.90
19928;DHT22;10126;50.876;4.470;2023-08-07T06:48:27;23.70;99.90
19928;DHT22;10126;50.876;4.470;2023-08-07T06:50:27;23.60;99.90
19928;DHT22;10126;50.876;4.470;2023-08-07T06:52:28;23.70;99.90
19928;DHT22;10126;50.876;4.470;2023-08-07T06:54:29;24.20;99.90
19928;DHT22;10126;50.876;4.470;2023-08-07T06:56:29;24.80;99.90
19928;DHT22;10126;50.876;4.470;2023-08-07T06:58:30;24.90;99.90
19928;DHT22;10126;50.876;4.470;2023-08-07T07:00:31;24.70;99.90
19928;DHT22;10126;50.876;4.470;2023-08-07T07:02:35;24.40;99.90
19928;DHT22;10126;50.876;4.470;2023-08-07T07:04:36;24.00;99.90
19928;DHT22;10126;50.876;4.470;2023-08-07T07:06:37;24.10;99.90
19928;DHT22;10126;50.876;4.470;2023-08-07T07:08:38;24.30;99.90
19928;DHT22;10126;50.876;4.470;2023-08-07T07:10:38;24.20;99.90
19928;DHT22;10126;50.876;4.470;2023-08-07T07:12:55;24.60;99.90
19928;DHT22;10126;50.876;4.470;2023-08-07T07:14:56;24.60;99.90
19928;DHT22;10126;50.876;4.470;2023-08-07T07:16:57;24.60;99.90
19928;DHT22;10126;50.876;4.470;2023-08-07T07:18:58;24.50;99.90
19928;DHT22;10126;50.876;4.470;2023-08-07T07:21:00;24.30;99.90
19928;DHT22;10126;50.876;4.470;2023-08-07T07:23:00;24.20;99.90
19928;DHT22;10126;50.876;4.470;2023-08-07T07:25:01;25.00;99.90
19928;DHT22;10126;50.876;4.470;2023-08-07T07:27:05;25.40;99.90
19928;DHT22;10126;50.876;4.470;2023-08-07T07:29:05;24.90;99.90
19928;DHT22;10126;50.876;4.470;2023-08-07T07:31:07;25.00;99.90
19928;DHT22;10126;50.876;4.470;2023-08-07T07:33:11;24.80;99.90
19928;DHT22;10126;50.876;4.470;2023-08-07T07:35:14;24.80;99.90
19928;DHT22;10126;50.876;4.470;2023-08-07T07:37:14;24.50;99.90
19928;DHT22;10126;50.876;4.470;2023-08-07T07:39:17;24.60;99.90
19928;DHT22;10126;50.876;4.470;2023-08-07T07:41:17;24.40;99.90
19928;DHT22;10126;50.876;4.470;2023-08-07T07:43:19;25.10;99.90
19928;DHT22;10126;50.876;4.470;2023-08-07T07:45:19;24.50;99.90
19928;DHT22;10126;50.876;4.470;2023-08-07T07:47:20;24.20;99.90
19928;DHT22;10126;50.876;4.470;2023-08-07T07:49:23;24.20;99.90
19928;DHT22;10126;50.876;4.470;2023-08-07T07:51:24;24.00;99.90
19928;DHT22;10126;50.876;4.470;2023-08-07T07:53:25;24.00;99.90
19928;DHT22;10126;50.876;4.470;2023-08-07T07:55:25;23.10;99.90
19928;DHT22;10126;50.876;4.470;2023-08-07T07:57:26;23.10;99.90
19928;DHT22;10126;50.876;4.470;2023-08-07T07:59:30;23.60;99.90
19928;DHT22;10126;50.876;4.470;2023-08-07T08:01:31;23.90;99.90
19928;DHT22;10126;50.876;4.470;2023-08-07T08:03:31;24.50;99.90
19928;DHT22;10126;50.876;4.470;2023-08-07T08:05:32;24.90;99.90
19928;DHT22;10126;50.876;4.470;2023-08-07T08:07:33;24.80;99.90
19928;DHT22;10126;50.876;4.470;2023-08-07T08:09:34;23.60;99.90
19928;DHT22;10126;50.876;4.470;2023-08-07T08:11:35;23.60;99.90
19928;DHT22;10126;50.876;4.470;2023-08-07T08:13:36;23.80;99.90
19928;DHT22;10126;50.876;4.470;2023-08-07T08:15:39;22.60;99.90
19928;DHT22;10126;50.876;4.470;2023-08-07T08:17:40;21.80;99.90
19928;DHT22;10126;50.876;4.470;2023-08-07T08:19:40;22.20;99.90
19928;DHT22;10126;50.876;4.470;2023-08-07T08:21:41;22.60;99.90
19928;DHT22;10126;50.876;4.470;2023-08-07T08:23:41;23.50;99.90
19928;DHT22;10126;50.876;4.470;2023-08-07T08:25:42;23.50;99.90
19928;DHT22;10126;50.876;4.470;2023-08-07T08:27:43;24.10;99.90
19928;DHT22;10126;50.876;4.470;2023-08-07T08:29:43;25.10;99.90
19928;DHT22;10126;50.876;4.470;2023-08-07T08:31:45;25.70;99.90
19928;DHT22;10126;50.876;4.470;2023-08-07T08:33:46;26.60;99.90
19928;DHT22;10126;50.876;4.470;2023-08-07T08:35:46;26.40;99.90
19928;DHT22;10126;50.876;4.470;2023-08-07T08:37:47;26.40;99.90
19928;DHT22;10126;50.876;4.470;2023-08-07T08:39:48;26.60;99.90
19928;DHT22;10126;50.876;4.470;2023-08-07T08:41:49;25.50;99.90
19928;DHT22;10126;50.876;4.470;2023-08-07T08:43:51;24.20;99.90
19928;DHT22;10126;50.876;4.470;2023-08-07T08:45:55;25.30;99.90
19928;DHT22;10126;50.876;4.470;2023-08-07T08:48:01;25.30;99.90
19928;DHT22;10126;50.876;4.470;2023-08-07T08:50:08;24.90;99.90
19928;DHT22;10126;50.876;4.470;2023-08-07T08:52:10;25.20;99.90
19928;DHT22;10126;50.876;4.470;2023-08-07T08:54:11;23.20;99.90
19928;DHT22;10126;50.876;4.470;2023-08-07T08:56:12;22.10;99.90
19928;DHT22;10126;50.876;4.470;2023-08-07T08:58:15;21.10;99.90
19928;DHT22;10126;50.876;4.470;2023-08-07T09:00:16;21.30;99.90
19928;DHT22;10126;50.876;4.470;2023-08-07T09:02:20;21.70;99.90
19928;DHT22;10126;50.876;4.470;2023-08-07T09:04:21;22.80;99.90
19928;DHT22;10126;50.876;4.470;2023-08-07T09:06:22;22.50;99.90
19928;DHT22;10126;50.876;4.470;2023-08-07T09:08:26;21.50;99.90
19928;DHT22;10126;50.876;4.470;2023-08-07T09:10:27;21.10;99.90
19928;DHT22;10126;50.876;4.470;2023-08-07T09:12:32;21.20;99.90
19928;DHT22;10126;50.876;4.470;2023-08-07T09:14:37;21.50;99.90
19928;DHT22;10126;50.876;4.470;2023-08-07T09:16:40;21.50;99.90
19928;DHT22;10126;50.876;4.470;2023-08-07T09:18:41;21.60;99.90
19928;DHT22;10126;50.876;4.470;2023-08-07T09:20:42;21.60;99.90
19928;DHT22;10126;50.876;4.470;2023-08-07T09:22:43;22.30;99.90
19928;DHT22;10126;50.876;4.470;2023-08-07T09:24:44;22.90;99.90
19928;DHT22;10126;50.876;4.470;2023-08-07T09:26:44;22.00;99.90
19928;DHT22;10126;50.876;4.470;2023-08-07T09:28:45;21.20;99.90
19928;DHT22;10126;50.876;4.470;2023-08-07T09:30:46;20.30;99.90
19928;DHT22;10126;50.876;4.470;2023-08-07T09:32:48;20.10;99.90
19928;DHT22;10126;50.876;4.470;2023-08-07T09:34:50;20.90;99.90
19928;DHT22;10126;50.876;4.470;2023-08-07T09:36:52;21.90;99.90
19928;DHT22;10126;50.876;4.470;2023-08-07T09:38:52;22.80;99.90
19928;DHT22;10126;50.876;4.470;2023-08-07T09:40:53;23.70;99.90
19928;DHT22;10126;50.876;4.470;2023-08-07T09:42:57;24.40;99.90
19928;DHT22;10126;50.876;4.470;2023-08-07T09:45:00;24.90;99.90
19928;DHT22;10126;50.876;4.470;2023-08-07T09:47:01;23.80;99.90
19928;DHT22;10126;50.876;4.470;2023-08-07T09:49:11;22.90;99.90
19928;DHT22;10126;50.876;4.470;2023-08-07T09:51:12;23.00;99.90
19928;DHT22;10126;50.876;4.470;2023-08-07T09:53:12;23.10;99.90
19928;DHT22;10126;50.876;4.470;2023-08-07T09:55:13;22.40;99.90
19928;DHT22;10126;50.876;4.470;2023-08-07T09:57:16;22.40;99.90
19928;DHT22;10126;50.876;4.470;2023-08-07T09:59:17;23.60;99.90
19928;DHT22;10126;50.876;4.470;2023-08-07T10:01:18;23.90;99.90
19928;DHT22;10126;50.876;4.470;2023-08-07T10:03:19;23.20;99.90
19928;DHT22;10126;50.876;4.470;2023-08-07T10:05:20;22.50;99.90
19928;DHT22;10126;50.876;4.470;2023-08-07T10:07:22;21.60;99.90
19928;DHT22;10126;50.876;4.470;2023-08-07T10:09:23;21.10;99.90
19928;DHT22;10126;50.876;4.470;2023-08-07T10:11:24;20.90;99.90
19928;DHT22;10126;50.876;4.470;2023-08-07T10:13:25;21.00;99.90
19928;DHT22;10126;50.876;4.470;2023-08-07T10:15:26;20.60;99.90
19928;DHT22;10126;50.876;4.470;2023-08-07T10:17:28;20.10;99.90
19928;DHT22;10126;50.876;4.470;2023-08-07T10:19:29;20.60;99.90
19928;DHT22;10126;50.876;4.470;2023-08-07T10:21:29;21.50;99.90
19928;DHT22;10126;50.876;4.470;2023-08-07T10:23:33;22.80;99.90
19928;DHT22;10126;50.876;4.470;2023-08-07T10:25:38;23.50;99.90
19928;DHT22;10126;50.876;4.470;2023-08-07T10:27:41;23.00;99.90
19928;DHT22;10126;50.876;4.470;2023-08-07T10:29:43;22.20;99.90
19928;DHT22;10126;50.876;4.470;2023-08-07T10:31:46;21.50;99.90
19928;DHT22;10126;50.876;4.470;2023-08-07T10:33:48;20.90;99.90
19928;DHT22;10126;50.876;4.470;2023-08-07T10:35:49;20.70;99.90
19928;DHT22;10126;50.876;4.470;2023-08-07T10:37:51;20.90;99.90
19928;DHT22;10126;50.876;4.470;2023-08-07T10:40:02;21.20;99.90
19928;DHT22;10126;50.876;4.470;2023-08-07T10:42:04;21.50;99.90
19928;DHT22;10126;50.876;4.470;2023-08-07T10:44:05;21.70;99.90
19928;DHT22;10126;50.876;4.470;2023-08-07T10:46:15;21.90;99.90
19928;DHT22;10126;50.876;4.470;2023-08-07T10:48:21;21.80;99.90
19928;DHT22;10126;50.876;4.470;2023-08-07T10:50:28;21.60;99.90
19928;DHT22;10126;50.876;4.470;2023-08-07T10:52:31;21.30;99.90
19928;DHT22;10126;50.876;4.470;2023-08-07T10:54:40;21.00;99.90
19928;DHT22;10126;50.876;4.470;2023-08-07T10:56:43;21.20;99.90
19928;DHT22;10126;50.876;4.470;2023-08-07T10:58:50;21.60;99.90
19928;DHT22;10126;50.876;4.470;2023-08-07T11:03:28;21.90;99.90
19928;DHT22;10126;50.876;4.470;2023-08-07T11:05:30;22.20;99.90
19928;DHT22;10126;50.876;4.470;2023-08-07T11:07:31;22.40;99.90
19928;DHT22;10126;50.876;4.470;2023-08-07T11:09:33;22.50;99.90
19928;DHT22;10126;50.876;4.470;2023-08-07T11:11:44;22.10;99.90
19928;DHT22;10126;50.876;4.470;2023-08-07T11:13:45;21.90;99.90
19928;DHT22;10126;50.876;4.470;2023-08-07T11:15:46;22.00;99.90
19928;DHT22;10126;50.876;4.470;2023-08-07T11:17:47;22.00;99.90
19928;DHT22;10126;50.876;4.470;2023-08-07T11:19:58;22.00;99.90
19928;DHT22;10126;50.876;4.470;2023-08-07T11:22:01;22.20;99.90
19928;DHT22;10126;50.876;4.470;2023-08-07T11:24:02;22.30;99.90
19928;DHT22;10126;50.876;4.470;2023-08-07T11:26:03;22.60;99.90
19928;DHT22;10126;50.876;4.470;2023-08-07T11:28:03;22.80;99.90
19928;DHT22;10126;50.876;4.470;2023-08-07T11:30:05;22.70;99.90
19928;DHT22;10126;50.876;4.470;2023-08-07T11:32:06;22.10;99.90
19928;DHT22;10126;50.876;4.470;2023-08-07T11:34:06;21.90;99.90
19928;DHT22;10126;50.876;4.470;2023-08-07T11:36:11;22.10;99.90
19928;DHT22;10126;50.876;4.470;2023-08-07T11:38:15;21.90;99.90
19928;DHT22;10126;50.876;4.470;2023-08-07T11:40:16;22.30;99.90
19928;DHT22;10126;50.876;4.470;2023-08-07T11:42:17;22.20;99.90
19928;DHT22;10126;50.876;4.470;2023-08-07T11:44:18;22.30;99.90
19928;DHT22;10126;50.876;4.470;2023-08-07T11:46:19;22.60;99.90
19928;DHT22;10126;50.876;4.470;2023-08-07T11:48:19;22.60;99.90
19928;DHT22;10126;50.876;4.470;2023-08-07T11:50:21;22.70;99.90
19928;DHT22;10126;50.876;4.470;2023-08-07T11:52:22;22.20;99.90
19928;DHT22;10126;50.876;4.470;2023-08-07T11:54:24;22.10;99.90
19928;DHT22;10126;50.876;4.470;2023-08-07T11:56:25;21.80;99.90
19928;DHT22;10126;50.876;4.470;2023-08-07T11:58:28;21.50;99.90
19928;DHT22;10126;50.876;4.470;2023-08-07T12:00:28;21.40;99.90
19928;DHT22;10126;50.876;4.470;2023-08-07T12:02:29;21.30;99.90
19928;DHT22;10126;50.876;4.470;2023-08-07T12:04:31;21.20;99.90
19928;DHT22;10126;50.876;4.470;2023-08-07T12:06:36;21.50;99.90
19928;DHT22;10126;50.876;4.470;2023-08-07T12:08:40;22.00;99.90
19928;DHT22;10126;50.876;4.470;2023-08-07T12:10:41;21.80;99.90
19928;DHT22;10126;50.876;4.470;2023-08-07T12:12:43;22.00;99.90
19928;DHT22;10126;50.876;4.470;2023-08-07T12:14:44;22.10;99.90
19928;DHT22;10126;50.876;4.470;2023-08-07T12:16:45;21.80;99.90
19928;DHT22;10126;50.876;4.470;2023-08-07T12:18:52;21.80;99.90
19928;DHT22;10126;50.876;4.470;2023-08-07T12:21:04;21.80;99.90
19928;DHT22;10126;50.876;4.470;2023-08-07T12:23:05;22.30;99.90
19928;DHT22;10126;50.876;4.470;2023-08-07T12:25:11;22.80;99.90
19928;DHT22;10126;50.876;4.470;2023-08-07T12:27:11;22.80;99.90
19928;DHT22;10126;50.876;4.470;2023-08-07T12:29:12;22.80;99.90
19928;DHT22;10126;50.876;4.470;2023-08-07T12:31:13;22.50;99.90
19928;DHT22;10126;50.876;4.470;2023-08-07T12:33:14;22.30;99.90
19928;DHT22;10126;50.876;4.470;2023-08-07T12:35:14;22.50;99.90
19928;DHT22;10126;50.876;4.470;2023-08-07T12:37:15;22.50;99.90
19928;DHT22;10126;50.876;4.470;2023-08-07T12:39:15;22.70;99.90
19928;DHT22;10126;50.876;4.470;2023-08-07T12:41:16;22.60;99.90
19928;DHT22;10126;50.876;4.470;2023-08-07T12:43:17;22.30;99.90
19928;DHT22;10126;50.876;4.470;2023-08-07T12:45:19;22.00;99.90
19928;DHT22;10126;50.876;4.470;2023-08-07T12:47:21;21.60;99.90
19928;DHT22;10126;50.876;4.470;2023-08-07T12:49:21;21.40;99.90
19928;DHT22;10126;50.876;4.470;2023-08-07T12:51:22;21.20;99.90
19928;DHT22;10126;50.876;4.470;2023-08-07T12:53:22;21.30;99.90
19928;DHT22;10126;50.876;4.470;2023-08-07T12:55:23;21.50;99.90
19928;DHT22;10126;50.876;4.470;2023-08-07T12:57:24;21.50;99.90